sensor_id;sensor_type;location;lat;lon;timestamp;pressure;altitude;pressure_sealevel;temperature;humidity
20825;BME280;10573;50.936;6.978;2023-08-21T00:01:44;101776.88;;;24.53;61.29
20825;BME280;10573;50.936;6.978;2023-08-21T00:04:09;101766.16;;;24.43;61.90
20825;BME280;10573;50.936;6.978;2023-08-21T00:06:34;101760.81;;;24.41;61.81
20825;BME280;10573;50.936;6.978;2023-08-21T00:09:01;101765.91;;;24.31;62.13
20825;BME280;10573;50.936;6.978;2023-08-21T00:11:27;101762.91;;;24.33;62.39
20825;BME280;10573;50.936;6.978;2023-08-21T00:13:52;101756.06;;;24.22;62.65
20825;BME280;10573;50.936;6.978;2023-08-21T00:16:18;101756.91;;;24.29;62.76
20825;BME280;10573;50.936;6.978;2023-08-21T00:18:43;101755.59;;;24.18;63.03
20825;BME280;10573;50.936;6.978;2023-08-21T00:21:09;101748.56;;;24.29;62.95
20825;BME280;10573;50.936;6.978;2023-08-21T00:23:34;101747.88;;;24.00;63.94
20825;BME280;10573;50.936;6.978;2023-08-21T00:25:59;101752.53;;;23.93;64.09
20825;BME280;10573;50.936;6.978;2023-08-21T00:28:25;101756.47;;;24.05;63.67
20825;BME280;10573;50.936;6.978;2023-08-21T00:30:50;101751.50;;;23.94;64.23
20825;BME280;10573;50.936;6.978;2023-08-21T00:33:16;101755.59;;;24.05;63.65
20825;BME280;10573;50.936;6.978;2023-08-21T00:35:42;101748.31;;;23.97;63.84
20825;BME280;10573;50.936;6.978;2023-08-21T00:38:08;101756.84;;;23.95;63.93
20825;BME280;10573;50.936;6.978;2023-08-21T00:40:33;101756.25;;;24.07;63.66
20825;BME280;10573;50.936;6.978;2023-08-21T00:42:59;101754.28;;;23.94;64.25
20825;BME280;10573;50.936;6.978;2023-08-21T00:45:24;101752.13;;;23.89;64.54
20825;BME280;10573;50.936;6.978;2023-08-21T00:47:50;101742.25;;;23.87;64.83
20825;BME280;10573;50.936;6.978;2023-08-21T00:50:15;101742.91;;;23.95;64.25
20825;BME280;10573;50.936;6.978;2023-08-21T00:52:44;101747.44;;;24.03;63.72
20825;BME280;10573;50.936;6.978;2023-08-21T00:55:11;101749.59;;;23.94;64.78
20825;BME280;10573;50.936;6.978;2023-08-21T00:57:38;101745.44;;;23.84;65.16
20825;BME280;10573;50.936;6.978;2023-08-21T01:00:04;101754.28;;;23.94;64.36
20825;BME280;10573;50.936;6.978;2023-08-21T01:02:30;101753.22;;;23.95;64.50
20825;BME280;10573;50.936;6.978;2023-08-21T01:04:55;101747.63;;;23.95;64.40
20825;BME280;10573;50.936;6.978;2023-08-21T01:07:21;101754.28;;;23.94;64.58
20825;BME280;10573;50.936;6.978;2023-08-21T01:09:55;101752.38;;;24.01;64.39
20825;BME280;10573;50.936;6.978;2023-08-21T01:12:33;101754.72;;;24.04;64.51
20825;BME280;10573;50.936;6.978;2023-08-21T01:15:02;101752.50;;;23.86;64.88
20825;BME280;10573;50.936;6.978;2023-08-21T01:17:29;101754.31;;;24.07;64.78
20825;BME280;10573;50.936;6.978;2023-08-21T01:19:56;101758.16;;;24.06;64.58
20825;BME280;10573;50.936;6.978;2023-08-21T01:22:35;101760.09;;;24.06;64.49
20825;BME280;10573;50.936;6.978;2023-08-21T01:25:00;101757.72;;;23.96;65.16
20825;BME280;10573;50.936;6.978;2023-08-21T01:27:26;101765.78;;;23.84;65.81
20825;BME280;10573;50.936;6.978;2023-08-21T01:29:51;101763.84;;;23.85;65.64
20825;BME280;10573;50.936;6.978;2023-08-21T01:32:59;101762.75;;;23.79;66.21
20825;BME280;10573;50.936;6.978;2023-08-21T01:35:27;101762.22;;;23.55;67.04
20825;BME280;10573;50.936;6.978;2023-08-21T01:37:54;101761.22;;;23.70;67.08
20825;BME280;10573;50.936;6.978;2023-08-21T01:40:24;101754.19;;;23.80;66.40
20825;BME280;10573;50.936;6.978;2023-08-21T01:42:49;101761.69;;;23.73;66.81
20825;BME280;10573;50.936;6.978;2023-08-21T01:45:15;101752.91;;;23.83;66.86
20825;BME280;10573;50.936;6.978;2023-08-21T01:47:41;101758.50;;;23.83;66.73
20825;BME280;10573;50.936;6.978;2023-08-21T01:50:07;101751.19;;;23.82;67.12
20825;BME280;10573;50.936;6.978;2023-08-21T01:52:32;101751.03;;;23.84;67.38
20825;BME280;10573;50.936;6.978;2023-08-21T01:54:58;101757.81;;;23.68;67.58
20825;BME280;10573;50.936;6.978;2023-08-21T01:57:23;101761.63;;;23.60;67.12
20825;BME280;10573;50.936;6.978;2023-08-21T01:59:49;101761.25;;;23.76;67.04
20825;BME280;10573;50.936;6.978;2023-08-21T02:02:14;101762.72;;;23.72;66.92
20825;BME280;10573;50.936;6.978;2023-08-21T02:04:39;101760.63;;;23.74;66.81
20825;BME280;10573;50.936;6.978;2023-08-21T02:07:05;101760.38;;;23.69;66.93
20825;BME280;10573;50.936;6.978;2023-08-21T02:09:30;101752.66;;;23.71;66.88
20825;BME280;10573;50.936;6.978;2023-08-21T02:11:56;101757.34;;;23.64;66.85
20825;BME280;10573;50.936;6.978;2023-08-21T02:14:21;101757.78;;;23.61;67.15
20825;BME280;10573;50.936;6.978;2023-08-21T02:16:47;101755.75;;;23.41;67.70
20825;BME280;10573;50.936;6.978;2023-08-21T02:19:12;101755.16;;;23.53;67.74
20825;BME280;10573;50.936;6.978;2023-08-21T02:21:38;101762.19;;;23.49;67.41
20825;BME280;10573;50.936;6.978;2023-08-21T02:24:03;101756.19;;;23.38;67.04
20825;BME280;10573;50.936;6.978;2023-08-21T02:26:29;101759.63;;;23.47;67.13
20825;BME280;10573;50.936;6.978;2023-08-21T02:28:54;101752.66;;;23.23;67.19
20825;BME280;10573;50.936;6.978;2023-08-21T02:31:19;101751.88;;;23.36;66.62
20825;BME280;10573;50.936;6.978;2023-08-21T02:33:45;101757.25;;;23.37;66.83
20825;BME280;10573;50.936;6.978;2023-08-21T02:36:11;101748.22;;;23.35;66.58
20825;BME280;10573;50.936;6.978;2023-08-21T02:38:36;101747.22;;;23.50;66.36
20825;BME280;10573;50.936;6.978;2023-08-21T02:41:01;101744.97;;;23.25;66.75
20825;BME280;10573;50.936;6.978;2023-08-21T02:43:27;101751.59;;;23.24;66.49
20825;BME280;10573;50.936;6.978;2023-08-21T02:45:52;101754.81;;;23.21;67.19
20825;BME280;10573;50.936;6.978;2023-08-21T02:48:18;101756.50;;;23.22;67.12
20825;BME280;10573;50.936;6.978;2023-08-21T02:50:43;101747.81;;;23.32;66.88
20825;BME280;10573;50.936;6.978;2023-08-21T02:53:09;101754.41;;;23.31;66.82
20825;BME280;10573;50.936;6.978;2023-08-21T02:55:34;101747.50;;;23.20;66.72
20825;BME280;10573;50.936;6.978;2023-08-21T02:57:59;101755.19;;;23.18;66.69
20825;BME280;10573;50.936;6.978;2023-08-21T03:00:25;101757.16;;;23.24;67.14
20825;BME280;10573;50.936;6.978;2023-08-21T03:02:50;101760.16;;;23.22;66.55
20825;BME280;10573;50.936;6.978;2023-08-21T03:05:16;101756.91;;;23.19;66.95
20825;BME280;10573;50.936;6.978;2023-08-21T03:07:41;101766.97;;;23.20;67.03
20825;BME280;10573;50.936;6.978;2023-08-21T03:10:07;101773.19;;;23.22;66.56
20825;BME280;10573;50.936;6.978;2023-08-21T03:12:33;101764.06;;;23.35;66.49
20825;BME280;10573;50.936;6.978;2023-08-21T03:14:59;101752.28;;;23.26;66.39
20825;BME280;10573;50.936;6.978;2023-08-21T03:17:24;101754.34;;;23.17;66.77
20825;BME280;10573;50.936;6.978;2023-08-21T03:19:50;101746.66;;;23.19;66.99
20825;BME280;10573;50.936;6.978;2023-08-21T03:22:16;101772.16;;;23.01;67.33
20825;BME280;10573;50.936;6.978;2023-08-21T03:24:41;101765.56;;;23.02;66.42
20825;BME280;10573;50.936;6.978;2023-08-21T03:27:06;101755.19;;;23.18;66.28
20825;BME280;10573;50.936;6.978;2023-08-21T03:29:32;101755.31;;;23.09;66.65
20825;BME280;10573;50.936;6.978;2023-08-21T03:31:57;101749.47;;;22.98;66.80
20825;BME280;10573;50.936;6.978;2023-08-21T03:34:23;101757.38;;;22.94;67.15
20825;BME280;10573;50.936;6.978;2023-08-21T03:36:49;101748.22;;;23.00;67.19
20825;BME280;10573;50.936;6.978;2023-08-21T03:39:14;101741.25;;;22.83;67.75
20825;BME280;10573;50.936;6.978;2023-08-21T03:41:40;101748.84;;;22.67;68.46
20825;BME280;10573;50.936;6.978;2023-08-21T03:44:05;101753.00;;;22.78;68.72
20825;BME280;10573;50.936;6.978;2023-08-21T03:46:31;101745.34;;;22.87;68.05
20825;BME280;10573;50.936;6.978;2023-08-21T03:48:58;101739.56;;;22.82;68.21
20825;BME280;10573;50.936;6.978;2023-08-21T03:51:23;101739.84;;;22.65;68.57
20825;BME280;10573;50.936;6.978;2023-08-21T03:53:49;101734.38;;;22.78;68.91
20825;BME280;10573;50.936;6.978;2023-08-21T03:56:15;101740.78;;;22.72;68.52
20825;BME280;10573;50.936;6.978;2023-08-21T03:58:40;101737.53;;;22.69;68.81
20825;BME280;10573;50.936;6.978;2023-08-21T04:01:06;101739.34;;;22.83;68.31
20825;BME280;10573;50.936;6.978;2023-08-21T04:03:31;101741.50;;;22.88;67.87
20825;BME280;10573;50.936;6.978;2023-08-21T04:05:56;101748.13;;;22.87;67.43
20825;BME280;10573;50.936;6.978;2023-08-21T04:08:22;101745.50;;;22.78;67.52
20825;BME280;10573;50.936;6.978;2023-08-21T04:10:48;101754.88;;;22.77;67.21
20825;BME280;10573;50.936;6.978;2023-08-21T04:13:13;101761.78;;;22.82;67.36
20825;BME280;10573;50.936;6.978;2023-08-21T04:15:44;101763.16;;;22.71;66.04
20825;BME280;10573;50.936;6.978;2023-08-21T04:18:10;101758.75;;;22.76;66.17
20825;BME280;10573;50.936;6.978;2023-08-21T04:20:35;101748.94;;;22.81;66.61
20825;BME280;10573;50.936;6.978;2023-08-21T04:23:01;101752.31;;;22.76;66.53
20825;BME280;10573;50.936;6.978;2023-08-21T04:25:26;101745.50;;;22.78;65.79
20825;BME280;10573;50.936;6.978;2023-08-21T04:27:51;101753.34;;;22.68;66.52
20825;BME280;10573;50.936;6.978;2023-08-21T04:30:17;101759.94;;;22.67;66.70
20825;BME280;10573;50.936;6.978;2023-08-21T04:32:42;101755.03;;;22.69;66.38
20825;BME280;10573;50.936;6.978;2023-08-21T04:35:08;101760.81;;;22.68;66.25
20825;BME280;10573;50.936;6.978;2023-08-21T04:37:34;101757.56;;;22.64;66.77
20825;BME280;10573;50.936;6.978;2023-08-21T04:39:59;101761.94;;;22.52;67.08
20825;BME280;10573;50.936;6.978;2023-08-21T04:42:24;101758.91;;;22.46;66.90
20825;BME280;10573;50.936;6.978;2023-08-21T04:44:50;101756.41;;;22.52;67.07
20825;BME280;10573;50.936;6.978;2023-08-21T04:47:25;101760.63;;;22.48;67.34
20825;BME280;10573;50.936;6.978;2023-08-21T04:49:52;101767.56;;;22.58;67.29
20825;BME280;10573;50.936;6.978;2023-08-21T04:52:21;101764.03;;;22.71;66.99
20825;BME280;10573;50.936;6.978;2023-08-21T04:54:48;101765.88;;;22.64;67.43
20825;BME280;10573;50.936;6.978;2023-08-21T04:57:14;101761.88;;;22.45;67.80
20825;BME280;10573;50.936;6.978;2023-08-21T04:59:39;101766.84;;;22.28;68.94
20825;BME280;10573;50.936;6.978;2023-08-21T05:02:05;101773.81;;;22.39;68.76
20825;BME280;10573;50.936;6.978;2023-08-21T05:04:32;101778.13;;;22.41;69.01
20825;BME280;10573;50.936;6.978;2023-08-21T05:06:58;101779.81;;;22.42;69.00
20825;BME280;10573;50.936;6.978;2023-08-21T05:09:23;101782.84;;;22.48;69.01
20825;BME280;10573;50.936;6.978;2023-08-21T05:11:49;101784.97;;;22.45;68.81
20825;BME280;10573;50.936;6.978;2023-08-21T05:14:14;101788.81;;;22.44;69.50
20825;BME280;10573;50.936;6.978;2023-08-21T05:16:40;101792.34;;;22.60;68.46
20825;BME280;10573;50.936;6.978;2023-08-21T05:19:05;101794.50;;;22.58;68.49
20825;BME280;10573;50.936;6.978;2023-08-21T05:21:30;101789.69;;;22.73;68.37
20825;BME280;10573;50.936;6.978;2023-08-21T05:23:56;101795.19;;;22.67;68.72
20825;BME280;10573;50.936;6.978;2023-08-21T05:26:21;101796.59;;;22.56;69.31
20825;BME280;10573;50.936;6.978;2023-08-21T05:28:47;101788.16;;;22.71;68.67
20825;BME280;10573;50.936;6.978;2023-08-21T05:31:12;101783.03;;;22.68;68.38
20825;BME280;10573;50.936;6.978;2023-08-21T05:33:38;101786.78;;;22.82;68.27
20825;BME280;10573;50.936;6.978;2023-08-21T05:36:04;101798.13;;;22.87;68.06
20825;BME280;10573;50.936;6.978;2023-08-21T05:38:30;101787.91;;;22.87;67.79
20825;BME280;10573;50.936;6.978;2023-08-21T05:40:56;101787.22;;;22.85;67.65
20825;BME280;10573;50.936;6.978;2023-08-21T05:43:21;101787.47;;;22.90;67.94
20825;BME280;10573;50.936;6.978;2023-08-21T05:45:48;101779.72;;;23.07;67.41
20825;BME280;10573;50.936;6.978;2023-08-21T05:48:13;101786.44;;;23.20;68.00
20825;BME280;10573;50.936;6.978;2023-08-21T05:50:39;101786.84;;;23.17;67.51
20825;BME280;10573;50.936;6.978;2023-08-21T05:53:05;101783.19;;;23.16;67.24
20825;BME280;10573;50.936;6.978;2023-08-21T05:55:31;101792.47;;;23.23;67.73
20825;BME280;10573;50.936;6.978;2023-08-21T05:57:56;101795.06;;;23.32;66.96
20825;BME280;10573;50.936;6.978;2023-08-21T06:00:22;101799.75;;;23.31;66.53
20825;BME280;10573;50.936;6.978;2023-08-21T06:02:47;101798.88;;;23.24;66.86
20825;BME280;10573;50.936;6.978;2023-08-21T06:05:13;101796.88;;;23.46;66.25
20825;BME280;10573;50.936;6.978;2023-08-21T06:07:38;101801.13;;;23.49;66.34
20825;BME280;10573;50.936;6.978;2023-08-21T06:10:06;101804.16;;;23.54;66.23
20825;BME280;10573;50.936;6.978;2023-08-21T06:12:32;101800.41;;;23.68;66.42
20825;BME280;10573;50.936;6.978;2023-08-21T06:14:57;101802.66;;;23.93;65.76
20825;BME280;10573;50.936;6.978;2023-08-21T06:17:23;101807.38;;;23.99;65.16
20825;BME280;10573;50.936;6.978;2023-08-21T06:19:48;101806.97;;;24.09;64.70
20825;BME280;10573;50.936;6.978;2023-08-21T06:22:14;101804.03;;;24.30;63.52
20825;BME280;10573;50.936;6.978;2023-08-21T06:24:40;101804.88;;;24.18;64.25
20825;BME280;10573;50.936;6.978;2023-08-21T06:27:06;101807.91;;;24.23;64.42
20825;BME280;10573;50.936;6.978;2023-08-21T06:29:32;101814.34;;;24.37;64.23
20825;BME280;10573;50.936;6.978;2023-08-21T06:31:57;101808.78;;;24.43;63.40
20825;BME280;10573;50.936;6.978;2023-08-21T06:34:23;101818.66;;;24.53;63.29
20825;BME280;10573;50.936;6.978;2023-08-21T06:36:48;101815.66;;;24.61;63.76
20825;BME280;10573;50.936;6.978;2023-08-21T06:39:14;101823.84;;;24.62;63.17
20825;BME280;10573;50.936;6.978;2023-08-21T06:41:39;101815.69;;;24.68;62.63
20825;BME280;10573;50.936;6.978;2023-08-21T06:44:04;101819.31;;;24.68;62.83
20825;BME280;10573;50.936;6.978;2023-08-21T06:46:30;101824.28;;;24.73;62.82
20825;BME280;10573;50.936;6.978;2023-08-21T06:48:55;101818.72;;;24.79;63.12
20825;BME280;10573;50.936;6.978;2023-08-21T06:51:20;101820.84;;;24.84;62.85
20825;BME280;10573;50.936;6.978;2023-08-21T06:53:46;101820.00;;;24.77;62.93
20825;BME280;10573;50.936;6.978;2023-08-21T06:56:12;101819.97;;;24.97;62.51
20825;BME280;10573;50.936;6.978;2023-08-21T06:58:37;101810.78;;;25.03;61.97
20825;BME280;10573;50.936;6.978;2023-08-21T07:01:03;101814.63;;;25.02;62.27
20825;BME280;10573;50.936;6.978;2023-08-21T07:03:28;101817.81;;;25.12;61.94
20825;BME280;10573;50.936;6.978;2023-08-21T07:05:57;101828.53;;;25.22;62.19
20825;BME280;10573;50.936;6.978;2023-08-21T07:08:24;101817.78;;;25.26;62.09
20825;BME280;10573;50.936;6.978;2023-08-21T07:10:49;101814.16;;;25.25;62.15
20825;BME280;10573;50.936;6.978;2023-08-21T07:13:15;101814.59;;;25.42;61.91
20825;BME280;10573;50.936;6.978;2023-08-21T07:15:40;101810.50;;;25.52;61.38
20825;BME280;10573;50.936;6.978;2023-08-21T07:18:06;101813.66;;;25.62;61.22
20825;BME280;10573;50.936;6.978;2023-08-21T07:20:33;101816.25;;;25.50;61.42
20825;BME280;10573;50.936;6.978;2023-08-21T07:22:58;101809.59;;;25.58;60.37
20825;BME280;10573;50.936;6.978;2023-08-21T07:25:24;101814.53;;;25.62;59.89
20825;BME280;10573;50.936;6.978;2023-08-21T07:27:51;101804.38;;;25.75;60.06
20825;BME280;10573;50.936;6.978;2023-08-21T07:30:18;101807.34;;;25.87;59.38
20825;BME280;10573;50.936;6.978;2023-08-21T07:32:45;101800.44;;;25.96;58.95
20825;BME280;10573;50.936;6.978;2023-08-21T07:35:10;101799.47;;;26.16;58.89
20825;BME280;10573;50.936;6.978;2023-08-21T07:37:36;101808.69;;;26.23;58.45
20825;BME280;10573;50.936;6.978;2023-08-21T07:40:01;101805.97;;;26.41;58.32
20825;BME280;10573;50.936;6.978;2023-08-21T07:42:27;101808.50;;;26.50;58.17
20825;BME280;10573;50.936;6.978;2023-08-21T07:44:52;101809.31;;;26.57;57.82
20825;BME280;10573;50.936;6.978;2023-08-21T07:47:18;101808.56;;;26.68;58.10
20825;BME280;10573;50.936;6.978;2023-08-21T07:49:43;101811.81;;;26.33;58.03
20825;BME280;10573;50.936;6.978;2023-08-21T07:52:09;101812.03;;;26.63;57.57
20825;BME280;10573;50.936;6.978;2023-08-21T07:54:34;101809.91;;;26.91;56.85
20825;BME280;10573;50.936;6.978;2023-08-21T07:56:59;101805.25;;;27.03;56.90
20825;BME280;10573;50.936;6.978;2023-08-21T07:59:25;101807.94;;;27.17;56.34
20825;BME280;10573;50.936;6.978;2023-08-21T08:01:51;101810.22;;;27.26;55.59
20825;BME280;10573;50.936;6.978;2023-08-21T08:04:16;101814.59;;;27.59;55.06
20825;BME280;10573;50.936;6.978;2023-08-21T08:06:42;101812.34;;;27.87;54.49
20825;BME280;10573;50.936;6.978;2023-08-21T08:09:07;101821.91;;;27.98;54.90
20825;BME280;10573;50.936;6.978;2023-08-21T08:11:32;101819.78;;;28.11;53.58
20825;BME280;10573;50.936;6.978;2023-08-21T08:13:58;101814.97;;;28.00;53.18
20825;BME280;10573;50.936;6.978;2023-08-21T08:16:24;101816.25;;;28.46;52.28
20825;BME280;10573;50.936;6.978;2023-08-21T08:18:49;101812.94;;;28.92;50.51
20825;BME280;10573;50.936;6.978;2023-08-21T08:21:14;101813.44;;;29.12;50.45
20825;BME280;10573;50.936;6.978;2023-08-21T08:23:40;101804.53;;;29.04;49.68
20825;BME280;10573;50.936;6.978;2023-08-21T08:26:05;101812.09;;;29.51;48.80
20825;BME280;10573;50.936;6.978;2023-08-21T08:28:31;101805.09;;;29.65;48.03
20825;BME280;10573;50.936;6.978;2023-08-21T08:30:56;101813.19;;;29.61;48.07
20825;BME280;10573;50.936;6.978;2023-08-21T08:33:23;101804.56;;;30.21;46.90
20825;BME280;10573;50.936;6.978;2023-08-21T08:35:48;101793.47;;;31.28;44.50
20825;BME280;10573;50.936;6.978;2023-08-21T08:38:14;101790.88;;;31.66;43.21
20825;BME280;10573;50.936;6.978;2023-08-21T08:40:45;101788.31;;;32.36;41.66
20825;BME280;10573;50.936;6.978;2023-08-21T08:43:12;101779.50;;;33.40;39.56
20825;BME280;10573;50.936;6.978;2023-08-21T08:45:43;101783.78;;;33.05;39.68
20825;BME280;10573;50.936;6.978;2023-08-21T08:48:10;101784.31;;;33.39;39.72
20825;BME280;10573;50.936;6.978;2023-08-21T08:50:37;101779.38;;;33.72;38.86
20825;BME280;10573;50.936;6.978;2023-08-21T08:53:03;101772.78;;;34.56;36.96
20825;BME280;10573;50.936;6.978;2023-08-21T08:55:29;101780.13;;;34.36;37.62
20825;BME280;10573;50.936;6.978;2023-08-21T08:57:55;101774.97;;;35.16;36.37
20825;BME280;10573;50.936;6.978;2023-08-21T09:00:20;101771.38;;;35.86;34.75
20825;BME280;10573;50.936;6.978;2023-08-21T09:02:47;101774.97;;;35.41;35.30
20825;BME280;10573;50.936;6.978;2023-08-21T09:05:13;101778.41;;;35.18;35.65
20825;BME280;10573;50.936;6.978;2023-08-21T09:07:39;101788.63;;;34.93;35.77
20825;BME280;10573;50.936;6.978;2023-08-21T09:10:12;101787.06;;;35.57;35.08
20825;BME280;10573;50.936;6.978;2023-08-21T09:12:38;101787.28;;;35.76;35.19
20825;BME280;10573;50.936;6.978;2023-08-21T09:15:07;101783.09;;;36.14;34.17
20825;BME280;10573;50.936;6.978;2023-08-21T09:17:33;101785.22;;;35.92;34.76
20825;BME280;10573;50.936;6.978;2023-08-21T09:20:06;101785.69;;;36.50;34.33
20825;BME280;10573;50.936;6.978;2023-08-21T09:22:33;101790.06;;;35.82;34.34
20825;BME280;10573;50.936;6.978;2023-08-21T09:25:04;101800.81;;;34.93;36.92
20825;BME280;10573;50.936;6.978;2023-08-21T09:27:36;101797.72;;;36.31;34.44
20825;BME280;10573;50.936;6.978;2023-08-21T09:30:09;101794.69;;;35.67;35.60
20825;BME280;10573;50.936;6.978;2023-08-21T09:32:55;101823.09;;;34.28;37.75
20825;BME280;10573;50.936;6.978;2023-08-21T09:35:21;101806.47;;;34.68;36.48
20825;BME280;10573;50.936;6.978;2023-08-21T09:37:47;101806.78;;;34.97;36.25
20825;BME280;10573;50.936;6.978;2023-08-21T09:40:12;101794.28;;;34.62;36.81
20825;BME280;10573;50.936;6.978;2023-08-21T09:42:41;101790.84;;;35.22;35.77
20825;BME280;10573;50.936;6.978;2023-08-21T09:45:07;101791.13;;;35.20;35.54
20825;BME280;10573;50.936;6.978;2023-08-21T09:47:33;101797.66;;;34.49;36.75
20825;BME280;10573;50.936;6.978;2023-08-21T09:49:59;101794.28;;;34.47;37.42
20825;BME280;10573;50.936;6.978;2023-08-21T09:52:25;101798.69;;;33.96;38.06
20825;BME280;10573;50.936;6.978;2023-08-21T09:54:53;101797.88;;;34.11;37.46
20825;BME280;10573;50.936;6.978;2023-08-21T09:57:22;101804.66;;;34.05;37.85
20825;BME280;10573;50.936;6.978;2023-08-21T09:59:50;101789.22;;;34.43;37.35
20825;BME280;10573;50.936;6.978;2023-08-21T10:02:17;101791.75;;;34.81;36.67
20825;BME280;10573;50.936;6.978;2023-08-21T10:04:45;101795.13;;;34.73;37.01
20825;BME280;10573;50.936;6.978;2023-08-21T10:07:11;101787.50;;;34.78;36.81
20825;BME280;10573;50.936;6.978;2023-08-21T10:09:39;101798.81;;;34.58;37.67
20825;BME280;10573;50.936;6.978;2023-08-21T10:12:06;101799.31;;;34.19;37.38
20825;BME280;10573;50.936;6.978;2023-08-21T10:14:34;101802.88;;;33.25;38.63
20825;BME280;10573;50.936;6.978;2023-08-21T10:17:00;101797.50;;;32.86;40.50
20825;BME280;10573;50.936;6.978;2023-08-21T10:19:32;101787.94;;;33.88;38.30
20825;BME280;10573;50.936;6.978;2023-08-21T10:21:57;101782.66;;;34.27;37.22
20825;BME280;10573;50.936;6.978;2023-08-21T10:24:42;101780.63;;;34.07;37.53
20825;BME280;10573;50.936;6.978;2023-08-21T10:27:07;101773.34;;;34.32;37.62
20825;BME280;10573;50.936;6.978;2023-08-21T10:29:33;101781.59;;;33.65;38.51
20825;BME280;10573;50.936;6.978;2023-08-21T10:32:03;101773.78;;;33.83;38.30
20825;BME280;10573;50.936;6.978;2023-08-21T10:34:36;101772.72;;;35.18;36.09
20825;BME280;10573;50.936;6.978;2023-08-21T10:37:06;101769.88;;;35.23;36.12
20825;BME280;10573;50.936;6.978;2023-08-21T10:39:33;101774.47;;;34.93;36.58
20825;BME280;10573;50.936;6.978;2023-08-21T10:42:03;101769.69;;;34.68;36.17
20825;BME280;10573;50.936;6.978;2023-08-21T10:49:57;101772.78;;;34.61;36.46
20825;BME280;10573;50.936;6.978;2023-08-21T10:54:51;101764.50;;;35.92;34.49
20825;BME280;10573;50.936;6.978;2023-08-21T10:57:17;101770.75;;;35.94;34.63
20825;BME280;10573;50.936;6.978;2023-08-21T11:00:12;101758.78;;;37.06;33.06
20825;BME280;10573;50.936;6.978;2023-08-21T11:02:42;101757.44;;;37.22;32.37
20825;BME280;10573;50.936;6.978;2023-08-21T11:05:08;101754.78;;;37.07;32.21
20825;BME280;10573;50.936;6.978;2023-08-21T11:07:38;101763.69;;;36.66;32.88
20825;BME280;10573;50.936;6.978;2023-08-21T11:10:06;101760.78;;;37.05;32.87
20825;BME280;10573;50.936;6.978;2023-08-21T11:12:32;101764.53;;;37.25;32.75
20825;BME280;10573;50.936;6.978;2023-08-21T11:14:58;101760.50;;;36.43;33.77
20825;BME280;10573;50.936;6.978;2023-08-21T11:17:23;101771.69;;;36.24;33.72
20825;BME280;10573;50.936;6.978;2023-08-21T11:19:48;101776.50;;;35.73;34.49
20825;BME280;10573;50.936;6.978;2023-08-21T11:22:15;101775.00;;;36.36;35.07
20825;BME280;10573;50.936;6.978;2023-08-21T11:24:43;101770.44;;;36.75;32.83
20825;BME280;10573;50.936;6.978;2023-08-21T11:27:10;101775.00;;;36.36;33.92
20825;BME280;10573;50.936;6.978;2023-08-21T11:29:44;101762.25;;;36.68;33.24
20825;BME280;10573;50.936;6.978;2023-08-21T11:32:12;101767.03;;;36.73;32.86
20825;BME280;10573;50.936;6.978;2023-08-21T11:34:37;101771.19;;;37.15;32.46
20825;BME280;10573;50.936;6.978;2023-08-21T11:37:04;101773.03;;;37.01;32.76
20825;BME280;10573;50.936;6.978;2023-08-21T11:39:44;101764.69;;;36.80;33.03
20825;BME280;10573;50.936;6.978;2023-08-21T11:42:13;101760.09;;;37.86;31.96
20825;BME280;10573;50.936;6.978;2023-08-21T11:44:52;101773.44;;;37.42;31.48
20825;BME280;10573;50.936;6.978;2023-08-21T11:47:19;101768.09;;;37.60;32.16
20825;BME280;10573;50.936;6.978;2023-08-21T11:49:46;101765.31;;;37.98;31.06
20825;BME280;10573;50.936;6.978;2023-08-21T11:52:13;101775.13;;;36.90;32.54
20825;BME280;10573;50.936;6.978;2023-08-21T11:54:39;101786.13;;;36.27;33.80
20825;BME280;10573;50.936;6.978;2023-08-21T11:57:13;101773.56;;;36.73;32.95
20825;BME280;10573;50.936;6.978;2023-08-21T11:59:39;101774.75;;;35.83;33.90
20825;BME280;10573;50.936;6.978;2023-08-21T12:02:17;101770.19;;;35.92;33.45
20825;BME280;10573;50.936;6.978;2023-08-21T12:04:43;101777.50;;;36.03;34.05
20825;BME280;10573;50.936;6.978;2023-08-21T12:07:09;101770.44;;;36.40;32.77
20825;BME280;10573;50.936;6.978;2023-08-21T12:09:35;101764.03;;;35.74;33.36
20825;BME280;10573;50.936;6.978;2023-08-21T12:12:00;101769.66;;;35.79;33.29
20825;BME280;10573;50.936;6.978;2023-08-21T12:14:27;101770.91;;;36.13;33.28
20825;BME280;10573;50.936;6.978;2023-08-21T12:16:53;101760.88;;;34.90;34.58
20825;BME280;10573;50.936;6.978;2023-08-21T12:19:19;101778.91;;;33.96;35.73
20825;BME280;10573;50.936;6.978;2023-08-21T12:21:46;101781.47;;;34.08;36.11
20825;BME280;10573;50.936;6.978;2023-08-21T12:24:12;101764.84;;;34.58;35.32
20825;BME280;10573;50.936;6.978;2023-08-21T12:26:37;101746.84;;;36.05;33.15
20825;BME280;10573;50.936;6.978;2023-08-21T12:29:03;101741.41;;;36.49;31.90
20825;BME280;10573;50.936;6.978;2023-08-21T12:31:28;101736.53;;;37.37;30.32
20825;BME280;10573;50.936;6.978;2023-08-21T12:33:54;101739.94;;;37.39;30.55
20825;BME280;10573;50.936;6.978;2023-08-21T12:36:19;101738.44;;;37.66;30.65
20825;BME280;10573;50.936;6.978;2023-08-21T12:38:45;101738.25;;;38.01;30.63
20825;BME280;10573;50.936;6.978;2023-08-21T12:41:10;101732.91;;;38.32;29.01
20825;BME280;10573;50.936;6.978;2023-08-21T12:43:36;101739.44;;;37.75;29.26
20825;BME280;10573;50.936;6.978;2023-08-21T12:46:01;101733.50;;;37.28;29.71
20825;BME280;10573;50.936;6.978;2023-08-21T12:48:26;101736.34;;;37.28;30.24
20825;BME280;10573;50.936;6.978;2023-08-21T12:50:52;101733.66;;;36.89;30.22
20825;BME280;10573;50.936;6.978;2023-08-21T12:53:17;101730.91;;;38.14;29.13
20825;BME280;10573;50.936;6.978;2023-08-21T12:55:43;101720.72;;;38.46;28.74